Change the Weather History Date:

Sunday, June 2, 2013

  Actual Average Record
Temperature  
Mean Temperature 48 °F -  
Max Temperature 62 °F 72 °F 92 °F (1934)
Min Temperature 35 °F 47 °F 31 °F (1946)
Degree Days  
Heating Degree Days 16    
Moisture  
Dew Point 39 °F    
Average Humidity 66    
Maximum Humidity 100    
Minimum Humidity 42    
Precipitation  
Precipitation 0.00 in - - ()
Sea Level Pressure  
Sea Level Pressure 30.05 in    
Wind  
Wind Speed 5 mph (NW)    
Max Wind Speed 10 mph    
Max Gust Speed 17 mph    
Visibility 10 miles    
Events      
Averages and records for this station are not official NWS values.
T = Trace of Precipitation, MM = Missing Value Source: NWS Daily Summary

Daily Weather History Graph

Daily Weather History Graph

Search for Another Location

Airport or City:

Trip Planner

Search our weather history database for the weather conditions in past years. The results will help you decide how hot, cold, wet, or windy it might be!

Date:

Astronomy

Jun. 02, 2013 Rise Set
Actual Time 5:31 AM CDT 9:07 PM CDT
Civil Twilight 4:53 AM CDT 9:45 PM CDT
Nautical Twilight 4:02 AM CDT 10:36 PM CDT
Astronomical Twilight 2:54 AM CDT 11:44 PM CDT
Moon 2:17 AM CDT (6/2) 3:21 PM CDT (6/2)
Length of Visible Light 16h 52m
Length of Day
15h 35m
Waning Crescent, 30% of the Moon is Illuminated
Jun 2
Waning Crescent
Jun 8
New
Jun 16
First Quarter
Jun 23
Full
Jun 29
Last Quarter

Hourly Weather History & Observations

Time (CDT) Temp. Windchill Dew Point Humidity Pressure Visibility Wind Dir Wind Speed Gust Speed Precip Events Conditions
12:15 AM 48.2 °F - 39.2 °F 71% 30.03 in 10.0 mi North 6.9 mph - N/A   Overcast
12:34 AM 48.2 °F - 39.2 °F 71% 30.03 in 10.0 mi North 6.9 mph - N/A   Overcast
12:53 AM 46.4 °F 44.3 °F 39.2 °F 76% 30.03 in 10.0 mi North 4.6 mph - N/A   Overcast
1:14 AM 46.4 °F 45.2 °F 39.2 °F 76% 30.04 in 10.0 mi North 3.5 mph - N/A   Overcast
1:34 AM 44.6 °F 42.2 °F 39.2 °F 81% 30.04 in 10.0 mi North 4.6 mph - N/A   Scattered Clouds
1:53 AM 44.6 °F 42.2 °F 37.4 °F 76% 30.04 in 10.0 mi North 4.6 mph - N/A   Clear
2:15 AM 41.0 °F 39.0 °F 37.4 °F 87% 30.04 in 10.0 mi NNW 3.5 mph - N/A   Clear
2:35 AM 41.0 °F 38.0 °F 37.4 °F 87% 30.04 in 10.0 mi NW 4.6 mph - N/A   Clear
2:53 AM 41.0 °F 39.0 °F 37.4 °F 87% 30.05 in 10.0 mi WNW 3.5 mph - N/A   Clear
3:15 AM 39.2 °F - 35.6 °F 87% 30.05 in 10.0 mi Calm Calm - N/A   Clear
3:35 AM 37.4 °F - 35.6 °F 93% 30.05 in 10.0 mi Calm Calm - N/A   Clear
3:53 AM 37.4 °F 33.8 °F 35.6 °F 93% 30.05 in 10.0 mi NW 4.6 mph - N/A   Clear
4:15 AM 37.4 °F 34.9 °F 35.6 °F 93% 30.05 in 10.0 mi NW 3.5 mph - N/A   Clear
4:35 AM 37.4 °F 33.8 °F 35.6 °F 93% 30.06 in 10.0 mi NW 4.6 mph - N/A   Clear
4:52 AM 35.6 °F 31.7 °F 35.6 °F 100% 30.06 in 10.0 mi NW 4.6 mph - N/A   Clear
5:15 AM 37.4 °F 34.9 °F 35.6 °F 93% 30.07 in 10.0 mi NW 3.5 mph - N/A   Clear
5:35 AM 35.6 °F 31.7 °F 33.8 °F 93% 30.07 in 10.0 mi NW 4.6 mph - N/A   Clear
5:53 AM 35.6 °F 31.7 °F 35.6 °F 100% 30.07 in 10.0 mi NW 4.6 mph - N/A   Clear
6:15 AM 37.4 °F 34.9 °F 35.6 °F 93% 30.08 in 10.0 mi WNW 3.5 mph - N/A   Clear
6:35 AM 39.2 °F 37.0 °F 37.4 °F 93% 30.08 in 10.0 mi WNW 3.5 mph - N/A   Clear
6:53 AM 41.0 °F 39.0 °F 37.4 °F 87% 30.08 in 10.0 mi NW 3.5 mph - N/A   Clear
7:15 AM 42.8 °F 40.1 °F 39.2 °F 87% 30.09 in 10.0 mi WNW 4.6 mph - N/A   Clear
7:35 AM 44.6 °F 42.2 °F 41.0 °F 87% 30.09 in 10.0 mi NW 4.6 mph - N/A   Scattered Clouds
7:53 AM 44.6 °F 43.1 °F 39.2 °F 81% 30.09 in 10.0 mi NW 3.5 mph - N/A   Scattered Clouds
8:15 AM 46.4 °F 43.5 °F 41.0 °F 81% 30.09 in 10.0 mi NW 5.8 mph - N/A   Mostly Cloudy
8:35 AM 48.2 °F - 41.0 °F 76% 30.09 in 10.0 mi NNW 3.5 mph - N/A   Mostly Cloudy
8:53 AM 48.2 °F - 41.0 °F 76% 30.09 in 10.0 mi NW 3.5 mph - N/A   Mostly Cloudy
9:15 AM 50.0 °F - 42.8 °F 76% 30.09 in 10.0 mi Calm Calm - N/A   Scattered Clouds
9:35 AM 53.6 °F - 42.8 °F 67% 30.08 in 10.0 mi NW 10.4 mph - N/A   Scattered Clouds
9:53 AM 53.6 °F - 42.8 °F 67% 30.08 in 10.0 mi NW 3.5 mph - N/A   Scattered Clouds
10:15 AM 53.6 °F - 42.8 °F 67% 30.08 in 10.0 mi WNW 8.1 mph - N/A   Mostly Cloudy
10:35 AM 53.6 °F - 41.0 °F 62% 30.08 in 10.0 mi NW 9.2 mph 17.3 mph N/A   Scattered Clouds
10:52 AM 55.4 °F - 41.0 °F 58% 30.08 in 10.0 mi NW 9.2 mph - N/A   Scattered Clouds
11:15 AM 53.6 °F - 37.4 °F 54% 30.08 in 10.0 mi WNW 10.4 mph - N/A   Mostly Cloudy
11:35 AM 55.4 °F - 39.2 °F 54% 30.08 in 10.0 mi NW 9.2 mph - N/A   Mostly Cloudy
11:52 AM 57.2 °F - 39.2 °F 51% 30.07 in 10.0 mi NW 6.9 mph - N/A   Mostly Cloudy
12:15 PM 57.2 °F - 39.2 °F 51% 30.07 in 10.0 mi NW 8.1 mph - N/A   Scattered Clouds
12:35 PM 57.2 °F - 39.2 °F 51% 30.07 in 10.0 mi NW 8.1 mph - N/A   Scattered Clouds
12:53 PM 57.2 °F - 39.2 °F 51% 30.07 in 10.0 mi NW 9.2 mph - N/A   Scattered Clouds
1:14 PM 59.0 °F - 39.2 °F 48% 30.06 in 10.0 mi WNW 10.4 mph 17.3 mph N/A   Scattered Clouds
1:35 PM 57.2 °F - 37.4 °F 48% 30.06 in 10.0 mi North 3.5 mph - N/A   Scattered Clouds
1:53 PM 57.2 °F - 37.4 °F 48% 30.06 in 10.0 mi NW 8.1 mph 16.1 mph N/A   Mostly Cloudy
2:14 PM 59.0 °F - 37.4 °F 45% 30.06 in 10.0 mi WNW 5.8 mph 17.3 mph N/A   Scattered Clouds
2:35 PM 60.8 °F - 37.4 °F 42% 30.06 in 10.0 mi WNW 6.9 mph - N/A   Scattered Clouds
2:53 PM 59.0 °F - 37.4 °F 45% 30.05 in 10.0 mi NW 5.8 mph - N/A   Scattered Clouds
3:15 PM 60.8 °F - 39.2 °F 45% 30.05 in 10.0 mi NNW 5.8 mph - N/A   Mostly Cloudy
3:34 PM 60.8 °F - 37.4 °F 42% 30.05 in 10.0 mi NW 8.1 mph - N/A   Scattered Clouds
3:53 PM 60.8 °F - 37.4 °F 42% 30.04 in 10.0 mi West 4.6 mph - N/A   Scattered Clouds
4:15 PM 60.8 °F - 39.2 °F 45% 30.04 in 10.0 mi NW 10.4 mph - N/A   Scattered Clouds
4:35 PM 60.8 °F - 37.4 °F 42% 30.03 in 10.0 mi WNW 5.8 mph - N/A   Clear
4:52 PM 62.6 °F - 39.2 °F 42% 30.02 in 10.0 mi NW 9.2 mph - N/A   Scattered Clouds
5:14 PM 60.8 °F - 37.4 °F 42% 30.02 in 10.0 mi WNW 4.6 mph - N/A   Clear
5:35 PM 60.8 °F - 37.4 °F 42% 30.02 in 10.0 mi NNW 8.1 mph - N/A   Clear
5:53 PM 60.8 °F - 39.2 °F 45% 30.01 in 10.0 mi NW 6.9 mph - N/A   Clear
6:15 PM 60.8 °F - 39.2 °F 45% 30.01 in 10.0 mi NW 6.9 mph - N/A   Clear
6:35 PM 60.8 °F - 39.2 °F 45% 30.01 in 10.0 mi NNW 6.9 mph - N/A   Clear
6:52 PM 59.0 °F - 39.2 °F 48% 30.01 in 10.0 mi NW 5.8 mph - N/A   Clear
7:15 PM 60.8 °F - 39.2 °F 45% 30.00 in 10.0 mi West 4.6 mph - N/A   Clear
7:34 PM 57.2 °F - 39.2 °F 51% 30.00 in 10.0 mi NW 5.8 mph - N/A   Clear
7:53 PM 57.2 °F - 39.2 °F 51% 30.01 in 10.0 mi West 3.5 mph - N/A   Clear
8:15 PM 57.2 °F - 39.2 °F 51% 30.01 in 10.0 mi WNW 3.5 mph - N/A   Clear
8:35 PM 57.2 °F - 39.2 °F 51% 30.01 in 10.0 mi Calm Calm - N/A   Clear
8:53 PM 55.4 °F - 39.2 °F 54% 30.01 in 10.0 mi Calm Calm - N/A   Clear
9:15 PM 53.6 °F - 39.2 °F 58% 30.01 in 10.0 mi Calm Calm - N/A   Clear
9:35 PM 53.6 °F - 39.2 °F 58% 30.02 in 10.0 mi Calm Calm - N/A   Clear
9:53 PM 53.6 °F - 39.2 °F 58% 30.02 in 10.0 mi Calm Calm - N/A   Clear
10:15 PM 50.0 °F - 39.2 °F 66% 30.03 in 10.0 mi Calm Calm - N/A   Clear
10:35 PM 48.2 °F - 39.2 °F 71% 30.03 in 10.0 mi Calm Calm - N/A   Clear
10:52 PM 48.2 °F - 39.2 °F 71% 30.03 in 10.0 mi Calm Calm - N/A   Clear
11:15 PM 46.4 °F - 39.2 °F 76% 30.03 in 10.0 mi Calm Calm - N/A   Clear
11:35 PM 44.6 °F 43.1 °F 39.2 °F 81% 30.04 in 10.0 mi West 3.5 mph - N/A   Clear
11:53 PM 46.4 °F - 39.2 °F 76% 30.04 in 10.0 mi Calm Calm - N/A   Clear